createdAt,value
2019-05-20T00:00:03.151Z,13.8
2019-05-20T00:15:03.457Z,13.8
2019-05-20T00:30:03.247Z,13.9
2019-05-20T00:45:02.511Z,13.9
2019-05-20T01:00:02.936Z,13.8
2019-05-20T01:15:03.099Z,13.8
2019-05-20T01:30:02.518Z,13.8
2019-05-20T01:45:02.802Z,13.9
2019-05-20T02:00:03.107Z,13.9
2019-05-20T02:15:02.412Z,13.8
2019-05-20T02:30:02.818Z,13.7
2019-05-20T02:45:03.147Z,13.7
2019-05-20T03:00:03.411Z,13.6
2019-05-20T03:15:02.738Z,13.6
2019-05-20T03:30:03.430Z,13.6
2019-05-20T03:45:02.756Z,13.6
2019-05-20T04:00:02.978Z,13.6
2019-05-20T04:15:03.303Z,13.5
2019-05-20T04:30:02.669Z,13.6
2019-05-20T04:45:02.982Z,13.5
2019-05-20T05:00:03.311Z,13.6
2019-05-20T05:15:05.738Z,13.7
2019-05-20T05:30:02.736Z,13.8
2019-05-20T05:45:03.047Z,13.9
2019-05-20T06:00:02.587Z,13.9
2019-05-20T06:15:02.919Z,13.9
2019-05-20T06:30:03.390Z,13.9
2019-05-20T06:45:02.781Z,14.2
2019-05-20T07:00:03.385Z,14.1
2019-05-20T07:15:02.990Z,14.4
2019-05-20T07:30:03.306Z,14.3
2019-05-20T07:45:02.826Z,14.3
2019-05-20T08:00:02.987Z,14.4
2019-05-20T08:15:02.460Z,14.3
2019-05-20T08:30:02.915Z,14.4
2019-05-20T08:45:03.809Z,14.1
2019-05-20T09:00:03.242Z,13.9
2019-05-20T09:15:03.035Z,13.8
2019-05-20T09:30:03.503Z,13.8
2019-05-20T09:45:03.282Z,13.7
2019-05-20T10:00:03.080Z,13.8
2019-05-20T10:15:03.392Z,13.6
2019-05-20T10:30:02.946Z,13.6
2019-05-20T10:45:03.458Z,13.5
2019-05-20T11:00:02.598Z,13.6
2019-05-20T11:15:03.156Z,13.5
2019-05-20T11:30:03.303Z,13.1
2019-05-20T11:45:02.588Z,12.9
2019-05-20T12:00:03.134Z,12.8
2019-05-20T12:15:03.101Z,13.1
2019-05-20T12:30:02.853Z,13.6
2019-05-20T12:45:03.220Z,13.5
2019-05-20T13:00:02.500Z,13.6
2019-05-20T13:15:03.589Z,13.4
2019-05-20T13:30:03.261Z,13.6
2019-05-20T13:45:02.696Z,13.2
2019-05-20T14:00:03.114Z,13
2019-05-20T14:15:03.272Z,13
2019-05-20T14:30:02.948Z,12.9
2019-05-20T14:45:02.936Z,12.6
2019-05-20T15:00:03.381Z,12.5
2019-05-20T15:15:02.760Z,12.5
2019-05-20T15:30:03.074Z,12.5
2019-05-20T15:45:03.277Z,12.6
2019-05-20T16:00:02.978Z,12.7
2019-05-20T16:15:03.306Z,12.7
2019-05-20T16:30:06.442Z,12.6
2019-05-20T16:45:03.158Z,12.6
2019-05-20T17:00:03.147Z,12.4
2019-05-20T17:15:02.895Z,12.3
2019-05-20T17:30:03.534Z,12.2
2019-05-20T17:45:02.910Z,12.2
2019-05-20T18:00:03.309Z,12.2
2019-05-20T18:15:02.456Z,12.1
2019-05-20T18:30:02.889Z,12
2019-05-20T18:45:03.213Z,11.9
2019-05-20T19:00:02.907Z,11.9
2019-05-20T19:15:02.931Z,11.9
2019-05-20T19:30:03.380Z,11.9
2019-05-20T19:45:02.740Z,11.9
2019-05-20T20:00:03.082Z,12
2019-05-20T20:15:03.390Z,12.1
2019-05-20T20:30:02.746Z,12.1
2019-05-20T20:45:03.021Z,12.1
2019-05-20T21:00:02.756Z,12.2
2019-05-20T21:15:03.130Z,12.3
2019-05-20T21:30:02.754Z,12.2
2019-05-20T21:45:03.306Z,12.2
2019-05-20T22:00:02.831Z,12.1
2019-05-20T22:15:03.378Z,12
2019-05-20T22:30:02.983Z,12
2019-05-20T22:45:02.531Z,11.8
2019-05-20T23:00:02.966Z,11.8
2019-05-20T23:15:02.628Z,11.8
2019-05-20T23:30:03.114Z,11.8
2019-05-20T23:45:02.655Z,11.8
